Zim Pacific — A8OZ4 — position and weather

sailwx.info

Track history (hours):
 
Tides and Currents Weather Stations Pressure Air Temp Water Temp Dewpoint Dewpoint Depression Visibility Wind Speed Wind Dir Waves Ship Positions

Zim Pacific

Last reported at 2014-Aug-26 12:00 UTC. Time now 2014-Aug-28 15:26 UTC.
Position N 06°12' E 095°30'.

Length 254 m; draft 11.5 m.

Type: Ship. MMSI: 636016512.

Wind from 260 at 15 knots

Waves 1.0 meters (3 feet), 4 second period

Barometer 1008.5 mb
Air temperature 28.0 ° C
Visibility: greater than 10.8 NM
Dewpoint 23.5 ° C
Water temperature 28.5 ° C

Date/timePositionNaut miles runAvg speedWind from/ knotsBaromVisibWave heightAir tempDewpointWater temp
2014-Aug-26 12:00N 06°12' E 095°30'33013.7 260 / 151008.510.8 1.028.023.528.5
2014-Aug-25 12:00N 03°30' E 100°18'   999 / 71009.010.8 28.724.029.8
2014-Aug-21 00:00N 16°54' E 113°12'32816.6 160 / 121009.510.8 1.031.026.029.0
2014-Aug-20 04:15N 22°18' E 114°06'1011.5
2014-Aug-20 03:21N 22°22' E 113°55'7 9.3
2014-Aug-20 02:33N 22°28' E 113°52'4 0.6
2014-Aug-19 19:32N 22°32' E 113°51'3 0.4
2014-Aug-19 11:16N 22°29' E 113°52'20 9.6
2014-Aug-19 09:08N 22°15' E 114°08'15415.3
2014-Aug-18 23:05N 22°51' E 116°50'918.1
2014-Aug-18 22:33N 22°56' E 116°58'4317.7
2014-Aug-18 20:07N 23°18' E 117°39'1017.4
2014-Aug-18 19:31N 23°26' E 117°46'1717.6
2014-Aug-18 18:33N 23°35' E 118°02'41716.7
2014-Aug-17 17:33N 29°18' E 122°28'1817.4
2014-Aug-17 16:32N 29°35' E 122°28'1515.1
2014-Aug-17 15:33N 29°47' E 122°16'1211.7
2014-Aug-17 14:33N 29°55' E 122°08'4 3.9
2014-Aug-17 13:29N 29°53' E 122°03'0 0.0
2014-Aug-17 12:29N 29°53' E 122°03'0 0.0
2014-Aug-17 11:29N 29°53' E 122°03'0 0.0
2014-Aug-17 10:28N 29°53' E 122°03'0 0.0
2014-Aug-17 09:28N 29°53' E 122°03'0 0.0
2014-Aug-17 08:31N 29°53' E 122°03'0 0.0
2014-Aug-17 07:31N 29°53' E 122°03'0 0.0
2014-Aug-17 06:32N 29°53' E 122°03'0 0.0
2014-Aug-17 05:27N 29°53' E 122°03'0 0.0
2014-Aug-17 04:31N 29°53' E 122°03'0 0.0
2014-Aug-17 03:33N 29°53' E 122°03'0 0.0
2014-Aug-17 02:33N 29°53' E 122°03'6 6.0
2014-Aug-17 01:34N 29°55' E 122°10'1211.5
2014-Aug-17 00:33N 29°46' E 122°18'8 8.4
2014-Aug-16 23:34N 29°44' E 122°27'6 4.7
2014-Aug-16 22:23N 29°43' E 122°33'0 0.2
2014-Aug-16 21:28N 29°43' E 122°33'0 0.1
2014-Aug-16 20:28N 29°43' E 122°33'0 0.0
2014-Aug-16 19:32N 29°43' E 122°33'0 0.1
2014-Aug-16 18:32N 29°43' E 122°33'0 0.1
2014-Aug-16 15:18N 29°43' E 122°33'0 0.1
2014-Aug-16 14:30N 29°43' E 122°33'0 0.0
2014-Aug-16 13:17N 29°43' E 122°33'0 0.1
2014-Aug-16 12:29N 29°43' E 122°33'  
Track history (hours):
 
Tides and Currents Weather Stations Pressure Air Temp Water Temp Dewpoint Dewpoint Depression Visibility Wind Speed Wind Dir Waves Ship Positions

Zim Pacific

Last reported at 2014-Aug-26 12:00 UTC. Time now 2014-Aug-28 15:26 UTC.
Position N 06°12' E 095°30'.

Length 254 m; draft 11.5 m.

Type: Ship. MMSI: 636016512.

Wind from 260 at 15 knots

Waves 1.0 meters (3 feet), 4 second period

Barometer 1008.5 mb
Air temperature 28.0 ° C
Visibility: greater than 10.8 NM
Dewpoint 23.5 ° C
Water temperature 28.5 ° C

Date/timePositionNaut miles runAvg speedWind from/ knotsBaromVisibWave heightAir tempDewpointWater temp
2014-Aug-26 12:00N 06°12' E 095°30'33013.7 260 / 151008.510.8 1.028.023.528.5
2014-Aug-25 12:00N 03°30' E 100°18'   999 / 71009.010.8 28.724.029.8
2014-Aug-21 00:00N 16°54' E 113°12'32816.6 160 / 121009.510.8 1.031.026.029.0
2014-Aug-20 04:15N 22°18' E 114°06'1011.5
2014-Aug-20 03:21N 22°22' E 113°55'7 9.3
2014-Aug-20 02:33N 22°28' E 113°52'4 0.6
2014-Aug-19 19:32N 22°32' E 113°51'3 0.4
2014-Aug-19 11:16N 22°29' E 113°52'20 9.6
2014-Aug-19 09:08N 22°15' E 114°08'15415.3
2014-Aug-18 23:05N 22°51' E 116°50'918.1
2014-Aug-18 22:33N 22°56' E 116°58'4317.7
2014-Aug-18 20:07N 23°18' E 117°39'1017.4
2014-Aug-18 19:31N 23°26' E 117°46'1717.6
2014-Aug-18 18:33N 23°35' E 118°02'41716.7
2014-Aug-17 17:33N 29°18' E 122°28'1817.4
2014-Aug-17 16:32N 29°35' E 122°28'1515.1
2014-Aug-17 15:33N 29°47' E 122°16'1211.7
2014-Aug-17 14:33N 29°55' E 122°08'4 3.9
2014-Aug-17 13:29N 29°53' E 122°03'0 0.0
2014-Aug-17 12:29N 29°53' E 122°03'0 0.0
2014-Aug-17 11:29N 29°53' E 122°03'0 0.0
2014-Aug-17 10:28N 29°53' E 122°03'0 0.0
2014-Aug-17 09:28N 29°53' E 122°03'0 0.0
2014-Aug-17 08:31N 29°53' E 122°03'0 0.0
2014-Aug-17 07:31N 29°53' E 122°03'0 0.0
2014-Aug-17 06:32N 29°53' E 122°03'0 0.0
2014-Aug-17 05:27N 29°53' E 122°03'0 0.0
2014-Aug-17 04:31N 29°53' E 122°03'0 0.0
2014-Aug-17 03:33N 29°53' E 122°03'0 0.0
2014-Aug-17 02:33N 29°53' E 122°03'6 6.0
2014-Aug-17 01:34N 29°55' E 122°10'1211.5
2014-Aug-17 00:33N 29°46' E 122°18'8 8.4
2014-Aug-16 23:34N 29°44' E 122°27'6 4.7
2014-Aug-16 22:23N 29°43' E 122°33'0 0.2
2014-Aug-16 21:28N 29°43' E 122°33'0 0.1
2014-Aug-16 20:28N 29°43' E 122°33'0 0.0
2014-Aug-16 19:32N 29°43' E 122°33'0 0.1
2014-Aug-16 18:32N 29°43' E 122°33'0 0.1
2014-Aug-16 15:18N 29°43' E 122°33'0 0.1
2014-Aug-16 14:30N 29°43' E 122°33'0 0.0
2014-Aug-16 13:17N 29°43' E 122°33'0 0.1
2014-Aug-16 12:29N 29°43' E 122°33'  

Dump ship's entire track history